Terminal Aerodrome Forecast
Issued by NWS

Home | Current Version | Previous Version | Graphics & Text | Print | Product List | Glossary On
Versions: 1 2 3 4 5 6 7 8 9 10 11 12 13 14 15 16 17 18
000
FTUS43 KMPX 251700
TAFAXN
TAF
KAXN 251720Z 2518/2618 26016G24KT P6SM SCT030
      TEMPO 2518/2521 BKN030
     FM260100 30007KT P6SM SCT030 BKN050
     FM260800 32006KT P6SM SKC
     FM261700 35007KT P6SM SCT030=

USA.gov is the U.S. government's official web portal to all federal, state and local government web resources and services.